EZY8405 EGKK-LFPG
Flight info
| Callsign | EZY8405 |
|---|---|
| Flight time | N/A |
| Altitude | 23000 |
| Route | BOGNA1X BOGNA DCT HARDY M605 XIDIL UM605 BIBAX BIBAX9W |
| Aircraft | A20N/M-EZY/S |
Departure
| Time | 2026-04-15 16:31 |
|---|---|
| Airport | London Gatwick Airport (EGKK) |
Arrival
| Time | N/A |
|---|---|
| Airport | Charles de Gaulle International Airport (LFPG) |
| Time | Latitude | Longitude | Altitude | Speed | Heading |
|---|---|---|---|---|---|
| 2026-04-15 15:41 | 51.15566 | -0.16993 | 215 ft | 0 kts | 166° |
| 2026-04-15 16:02 | 51.15576 | -0.16997 | 215 ft | 3 kts | 167° |
| 2026-04-15 16:03 | 51.15593 | -0.17002 | 209 ft | 3 kts | 175° |
| 2026-04-15 16:03 | 51.15611 | -0.16999 | 210 ft | 3 kts | 197° |
| 2026-04-15 16:03 | 51.15628 | -0.16988 | 216 ft | 3 kts | 212° |
| 2026-04-15 16:03 | 51.15641 | -0.16968 | 215 ft | 3 kts | 229° |
| 2026-04-15 16:04 | 51.15651 | -0.16951 | 214 ft | 0 kts | 240° |
| 2026-04-15 16:05 | 51.15654 | -0.16943 | 210 ft | 0 kts | 266° |
| 2026-04-15 16:13 | 51.15654 | -0.16933 | 206 ft | 0 kts | 266° |
| 2026-04-15 16:13 | 51.15654 | -0.16939 | 206 ft | 1 kts | 266° |
| 2026-04-15 16:13 | 51.15653 | -0.16960 | 212 ft | 2 kts | 265° |
| 2026-04-15 16:14 | 51.15650 | -0.16990 | 212 ft | 3 kts | 260° |
| 2026-04-15 16:14 | 51.15646 | -0.17029 | 210 ft | 4 kts | 257° |
| 2026-04-15 16:14 | 51.15639 | -0.17075 | 207 ft | 5 kts | 259° |
| 2026-04-15 16:14 | 51.15631 | -0.17131 | 218 ft | 6 kts | 257° |
| 2026-04-15 16:15 | 51.15621 | -0.17200 | 210 ft | 7 kts | 256° |
| 2026-04-15 16:15 | 51.15608 | -0.17277 | 210 ft | 7 kts | 250° |
| 2026-04-15 16:15 | 51.15579 | -0.17319 | 209 ft | 5 kts | 189° |
| 2026-04-15 16:15 | 51.15551 | -0.17314 | 213 ft | 4 kts | 171° |
| 2026-04-15 16:16 | 51.15519 | -0.17303 | 209 ft | 5 kts | 167° |
| 2026-04-15 16:16 | 51.15478 | -0.17288 | 217 ft | 7 kts | 167° |
| 2026-04-15 16:16 | 51.15440 | -0.17275 | 207 ft | 0 kts | 168° |
| 2026-04-15 16:17 | 51.15433 | -0.17272 | 207 ft | 2 kts | 167° |
| 2026-04-15 16:17 | 51.15414 | -0.17265 | 216 ft | 4 kts | 167° |
| 2026-04-15 16:17 | 51.15383 | -0.17255 | 210 ft | 5 kts | 167° |
| 2026-04-15 16:17 | 51.15363 | -0.17247 | 214 ft | 0 kts | 167° |
| 2026-04-15 16:18 | 51.15362 | -0.17247 | 214 ft | 0 kts | 167° |
| 2026-04-15 16:18 | 51.15354 | -0.17244 | 207 ft | 2 kts | 171° |
| 2026-04-15 16:18 | 51.15336 | -0.17245 | 210 ft | 3 kts | 187° |
| 2026-04-15 16:18 | 51.15318 | -0.17266 | 207 ft | 3 kts | 239° |
| 2026-04-15 16:19 | 51.15312 | -0.17295 | 210 ft | 0 kts | 257° |
| 2026-04-15 16:19 | 51.15312 | -0.17294 | 210 ft | 0 kts | 257° |
| 2026-04-15 16:20 | 51.15311 | -0.17300 | 210 ft | 1 kts | 253° |
| 2026-04-15 16:20 | 51.15310 | -0.17304 | 210 ft | 0 kts | 252° |
| 2026-04-15 16:21 | 51.15309 | -0.17309 | 209 ft | 1 kts | 249° |
| 2026-04-15 16:21 | 51.15301 | -0.17328 | 215 ft | 3 kts | 226° |
| 2026-04-15 16:21 | 51.15281 | -0.17341 | 210 ft | 4 kts | 185° |
| 2026-04-15 16:21 | 51.15253 | -0.17324 | 213 ft | 6 kts | 147° |
| 2026-04-15 16:22 | 51.15214 | -0.17279 | 214 ft | 8 kts | 144° |
| 2026-04-15 16:22 | 51.15181 | -0.17241 | 207 ft | 0 kts | 144° |
| 2026-04-15 16:22 | 51.15181 | -0.17240 | 207 ft | 0 kts | 144° |
| 2026-04-15 16:22 | 51.15181 | -0.17241 | 207 ft | 0 kts | 144° |
| 2026-04-15 16:24 | 51.15181 | -0.17240 | 206 ft | 0 kts | 144° |
| 2026-04-15 16:24 | 51.15181 | -0.17241 | 206 ft | 0 kts | 144° |
| 2026-04-15 16:25 | 51.15181 | -0.17240 | 206 ft | 0 kts | 144° |
| 2026-04-15 16:26 | 51.15181 | -0.17241 | 206 ft | 0 kts | 144° |
| 2026-04-15 16:26 | 51.15181 | -0.17240 | 206 ft | 0 kts | 144° |
| 2026-04-15 16:26 | 51.15181 | -0.17241 | 206 ft | 0 kts | 144° |
| 2026-04-15 16:27 | 51.15181 | -0.17240 | 206 ft | 0 kts | 144° |
| 2026-04-15 16:27 | 51.15181 | -0.17241 | 206 ft | 0 kts | 144° |
| 2026-04-15 16:27 | 51.15181 | -0.17240 | 206 ft | 0 kts | 144° |
| 2026-04-15 16:27 | 51.15181 | -0.17241 | 206 ft | 0 kts | 144° |
| 2026-04-15 16:28 | 51.15181 | -0.17240 | 206 ft | 0 kts | 144° |
| 2026-04-15 16:28 | 51.15181 | -0.17241 | 206 ft | 0 kts | 144° |
| 2026-04-15 16:28 | 51.15181 | -0.17240 | 206 ft | 0 kts | 144° |
| 2026-04-15 16:29 | 51.15181 | -0.17241 | 206 ft | 0 kts | 144° |
| 2026-04-15 16:29 | 51.15175 | -0.17234 | 205 ft | 3 kts | 144° |
| 2026-04-15 16:29 | 51.15144 | -0.17208 | 209 ft | 6 kts | 171° |
| 2026-04-15 16:29 | 51.15102 | -0.17249 | 214 ft | 9 kts | 231° |
| 2026-04-15 16:30 | 51.15069 | -0.17333 | 213 ft | 10 kts | 238° |
| 2026-04-15 16:30 | 51.15039 | -0.17426 | 214 ft | 9 kts | 247° |
| 2026-04-15 16:30 | 51.15018 | -0.17525 | 210 ft | 7 kts | 258° |
| 2026-04-15 16:30 | 51.14995 | -0.17693 | 213 ft | 50 kts | 257° |
| 2026-04-15 16:31 | 51.14855 | -0.18697 | 214 ft | 136 kts | 257° |
| 2026-04-15 16:31 | 51.14617 | -0.20475 | 378 ft | 186 kts | 253° |
| 2026-04-15 16:31 | 51.14349 | -0.22510 | 835 ft | 185 kts | 254° |
| 2026-04-15 16:31 | 51.14084 | -0.24599 | 1576 ft | 199 kts | 253° |
| 2026-04-15 16:32 | 51.13784 | -0.26837 | 2195 ft | 214 kts | 253° |
| 2026-04-15 16:32 | 51.13472 | -0.29173 | 2823 ft | 220 kts | 254° |
| 2026-04-15 16:32 | 51.13155 | -0.31555 | 3467 ft | 219 kts | 255° |
| 2026-04-15 16:32 | 51.12837 | -0.33940 | 4138 ft | 221 kts | 254° |
| 2026-04-15 16:33 | 51.12503 | -0.36437 | 4827 ft | 246 kts | 254° |
| 2026-04-15 16:33 | 51.12126 | -0.39222 | 5504 ft | 268 kts | 255° |
| 2026-04-15 16:33 | 51.11677 | -0.42165 | 6186 ft | 272 kts | 246° |
| 2026-04-15 16:33 | 51.10550 | -0.44508 | 7065 ft | 271 kts | 217° |
| 2026-04-15 16:34 | 51.08782 | -0.45614 | 8074 ft | 279 kts | 194° |
| 2026-04-15 16:34 | 51.06830 | -0.45583 | 9086 ft | 292 kts | 178° |
| 2026-04-15 16:34 | 51.04835 | -0.44623 | 10057 ft | 303 kts | 167° |
| 2026-04-15 16:34 | 51.02810 | -0.43861 | 10961 ft | 294 kts | 185° |
| 2026-04-15 16:35 | 51.00725 | -0.43824 | 11184 ft | 303 kts | 184° |
| 2026-04-15 16:35 | 50.98613 | -0.43366 | 11559 ft | 309 kts | 176° |
| 2026-04-15 16:35 | 50.96532 | -0.43157 | 12318 ft | 298 kts | 191° |
| 2026-04-15 16:35 | 50.94414 | -0.43330 | 12539 ft | 310 kts | 181° |
| 2026-04-15 16:36 | 50.92274 | -0.42573 | 12591 ft | 318 kts | 171° |
| 2026-04-15 16:36 | 50.90158 | -0.41469 | 12684 ft | 322 kts | 168° |
| 2026-04-15 16:36 | 50.88062 | -0.40172 | 12776 ft | 324 kts | 165° |
| 2026-04-15 16:36 | 50.86010 | -0.38720 | 12874 ft | 328 kts | 162° |
| 2026-04-15 16:37 | 50.83955 | -0.37103 | 12970 ft | 329 kts | 162° |
| 2026-04-15 16:37 | 50.81850 | -0.35707 | 13025 ft | 325 kts | 168° |
| 2026-04-15 16:37 | 50.79686 | -0.34912 | 13256 ft | 315 kts | 182° |
| 2026-04-15 16:37 | 50.77494 | -0.34824 | 13864 ft | 318 kts | 181° |
| 2026-04-15 16:38 | 50.75403 | -0.33613 | 14192 ft | 340 kts | 152° |
| 2026-04-15 16:38 | 50.73665 | -0.30949 | 14521 ft | 353 kts | 141° |
| 2026-04-15 16:38 | 50.72000 | -0.28029 | 15077 ft | 358 kts | 137° |
| 2026-04-15 16:38 | 50.70585 | -0.24720 | 15744 ft | 368 kts | 127° |
| 2026-04-15 16:39 | 50.69243 | -0.21364 | 16642 ft | 358 kts | 139° |
| 2026-04-15 16:39 | 50.67553 | -0.18560 | 17719 ft | 358 kts | 134° |
| 2026-04-15 16:39 | 50.66364 | -0.15032 | 18673 ft | 373 kts | 117° |
| 2026-04-15 16:39 | 50.65694 | -0.11053 | 19665 ft | 374 kts | 111° |
| 2026-04-15 16:40 | 50.65154 | -0.07115 | 20716 ft | 365 kts | 115° |
| 2026-04-15 16:40 | 50.64126 | -0.03657 | 21782 ft | 335 kts | 136° |
| 2026-04-15 16:40 | 50.62788 | -0.00764 | 23011 ft | 322 kts | 134° |
| 2026-04-15 16:40 | 50.61753 | 0.02352 | 24184 ft | 320 kts | 123° |
| 2026-04-15 16:41 | 50.60912 | 0.05468 | 24976 ft | 302 kts | 135° |
| 2026-04-15 16:41 | 50.59744 | 0.08156 | 25644 ft | 299 kts | 133° |
| 2026-04-15 16:41 | 50.58879 | 0.11183 | 26376 ft | 304 kts | 122° |
| 2026-04-15 16:41 | 50.58290 | 0.14319 | 27188 ft | 295 kts | 121° |
| 2026-04-15 16:42 | 50.57780 | 0.16715 | 27458 ft | 300 kts | 122° |
| 2026-04-15 16:42 | 50.57544 | 0.17777 | 27226 ft | 313 kts | 124° |
| 2026-04-15 16:42 | 50.56428 | 0.20776 | 26797 ft | 318 kts | 146° |
| 2026-04-15 16:42 | 50.54649 | 0.22750 | 26585 ft | 319 kts | 166° |
| 2026-04-15 16:43 | 50.52462 | 0.23427 | 26343 ft | 327 kts | 186° |
| 2026-04-15 16:43 | 50.50214 | 0.22656 | 26115 ft | 343 kts | 205° |
| 2026-04-15 16:43 | 50.48183 | 0.20473 | 25878 ft | 368 kts | 222° |
| 2026-04-15 16:43 | 50.46674 | 0.17120 | 25571 ft | 380 kts | 239° |
| 2026-04-15 16:44 | 50.45881 | 0.13173 | 25240 ft | 378 kts | 250° |
| 2026-04-15 16:44 | 50.45363 | 0.09190 | 24902 ft | 375 kts | 258° |
| 2026-04-15 16:44 | 50.46269 | 0.05307 | 25467 ft | 417 kts | 310° |
| 2026-04-15 16:44 | 50.49177 | 0.04001 | 24926 ft | 464 kts | 358° |
| 2026-04-15 16:45 | 50.52448 | 0.04436 | 24160 ft | 474 kts | 2° |
| 2026-04-15 16:45 | 50.55611 | 0.05664 | 23761 ft | 476 kts | 27° |
| 2026-04-15 16:45 | 50.58120 | 0.08934 | 23714 ft | 461 kts | 58° |
| 2026-04-15 16:45 | 50.59292 | 0.13427 | 24275 ft | 437 kts | 86° |
| 2026-04-15 16:46 | 50.59863 | 0.18139 | 24406 ft | 435 kts | 93° |
| 2026-04-15 16:46 | 50.59524 | 0.22541 | 25079 ft | 394 kts | 122° |
| 2026-04-15 16:46 | 50.58203 | 0.26086 | 25833 ft | 361 kts | 137° |
| 2026-04-15 16:46 | 50.56401 | 0.28832 | 26012 ft | 359 kts | 152° |
| 2026-04-15 16:47 | 50.54335 | 0.31045 | 26266 ft | 363 kts | 154° |
| 2026-04-15 16:47 | 50.52366 | 0.33686 | 26502 ft | 379 kts | 146° |
| 2026-04-15 16:47 | 50.50486 | 0.36723 | 25739 ft | 399 kts | 141° |
| 2026-04-15 16:47 | 50.48652 | 0.40060 | 25022 ft | 402 kts | 141° |
| 2026-04-15 16:48 | 50.46752 | 0.43242 | 24420 ft | 397 kts | 144° |
| 2026-04-15 16:48 | 50.44784 | 0.46266 | 23778 ft | 395 kts | 144° |
| 2026-04-15 16:48 | 50.42854 | 0.49352 | 23108 ft | 398 kts | 139° |
| 2026-04-15 16:48 | 50.41422 | 0.53023 | 23049 ft | 400 kts | 125° |
| 2026-04-15 16:49 | 50.40125 | 0.56877 | 23283 ft | 396 kts | 130° |
| 2026-04-15 16:49 | 50.38560 | 0.60376 | 23521 ft | 388 kts | 139° |
| 2026-04-15 16:49 | 50.36736 | 0.63437 | 23744 ft | 382 kts | 144° |
| 2026-04-15 16:49 | 50.34825 | 0.66329 | 23968 ft | 382 kts | 146° |
| 2026-04-15 16:50 | 50.32918 | 0.69251 | 24126 ft | 382 kts | 146° |
| 2026-04-15 16:50 | 50.31030 | 0.72153 | 24159 ft | 391 kts | 138° |
| 2026-04-15 16:50 | 50.29627 | 0.75919 | 23946 ft | 412 kts | 120° |
| 2026-04-15 16:50 | 50.28766 | 0.80251 | 23801 ft | 413 kts | 120° |
| 2026-04-15 16:51 | 50.27507 | 0.84178 | 23645 ft | 397 kts | 133° |
| 2026-04-15 16:51 | 50.25777 | 0.87443 | 23469 ft | 382 kts | 145° |
| 2026-04-15 16:51 | 50.23765 | 0.89962 | 23293 ft | 370 kts | 155° |
| 2026-04-15 16:51 | 50.21512 | 0.91780 | 23016 ft | 359 kts | 166° |
| 2026-04-15 16:52 | 50.19148 | 0.93004 | 22782 ft | 357 kts | 169° |
| 2026-04-15 16:52 | 50.16755 | 0.94023 | 22567 ft | 356 kts | 172° |
| 2026-04-15 16:52 | 50.14325 | 0.94872 | 22076 ft | 355 kts | 174° |
| 2026-04-15 16:52 | 50.11937 | 0.95561 | 21459 ft | 353 kts | 175° |
| 2026-04-15 16:53 | 50.09528 | 0.96296 | 20943 ft | 353 kts | 171° |
| 2026-04-15 16:53 | 50.07227 | 0.97759 | 20491 ft | 360 kts | 158° |
| 2026-04-15 16:53 | 50.04972 | 0.99407 | 20141 ft | 355 kts | 165° |
| 2026-04-15 16:53 | 50.02634 | 1.00309 | 19783 ft | 344 kts | 180° |
| 2026-04-15 16:54 | 50.00271 | 1.00113 | 19506 ft | 337 kts | 190° |
| 2026-04-15 16:54 | 49.97904 | 1.00033 | 19554 ft | 342 kts | 184° |
| 2026-04-15 16:54 | 49.95523 | 1.00056 | 19578 ft | 341 kts | 184° |
| 2026-04-15 16:54 | 49.93168 | 1.00088 | 19615 ft | 342 kts | 184° |
| 2026-04-15 16:55 | 49.90784 | 1.00152 | 19642 ft | 343 kts | 183° |
| 2026-04-15 16:55 | 49.88391 | 1.00341 | 19151 ft | 344 kts | 180° |
| 2026-04-15 16:55 | 49.86008 | 1.00665 | 18813 ft | 344 kts | 179° |
| 2026-04-15 16:55 | 49.83663 | 1.00634 | 18475 ft | 332 kts | 200° |
| 2026-04-15 16:56 | 49.81748 | 0.98790 | 17930 ft | 326 kts | 226° |
| 2026-04-15 16:56 | 49.80324 | 0.96105 | 17660 ft | 327 kts | 232° |
| 2026-04-15 16:56 | 49.79070 | 0.93162 | 17406 ft | 327 kts | 236° |
| 2026-04-15 16:56 | 49.77877 | 0.90137 | 17233 ft | 326 kts | 237° |
| 2026-04-15 16:57 | 49.76808 | 0.87100 | 17026 ft | 325 kts | 239° |
| 2026-04-15 16:57 | 49.75785 | 0.83990 | 16585 ft | 322 kts | 236° |
| 2026-04-15 16:57 | 49.74250 | 0.81549 | 16186 ft | 314 kts | 216° |
| 2026-04-15 16:57 | 49.72337 | 0.79998 | 15958 ft | 305 kts | 205° |
| 2026-04-15 16:58 | 49.70568 | 0.78403 | 15785 ft | 289 kts | 220° |
| 2026-04-15 16:58 | 49.69176 | 0.76282 | 15515 ft | 281 kts | 230° |
| 2026-04-15 16:58 | 49.67940 | 0.73998 | 15305 ft | 272 kts | 230° |
| 2026-04-15 16:58 | 49.66535 | 0.72140 | 15187 ft | 263 kts | 210° |
| 2026-04-15 16:59 | 49.64909 | 0.71001 | 15201 ft | 249 kts | 204° |
| 2026-04-15 16:59 | 49.63289 | 0.70162 | 14974 ft | 245 kts | 202° |
| 2026-04-15 16:59 | 0.00000 | 0.00000 | 1081 ft | 0 kts | 355° |